createdAt,value
2018-04-24T00:04:41.299Z,10.89
2018-04-24T00:10:32.114Z,11.11
2018-04-24T00:16:23.003Z,10.95
2018-04-24T00:22:13.813Z,11.66
2018-04-24T00:28:04.642Z,11.95
2018-04-24T00:33:55.552Z,11.51
2018-04-24T00:39:46.337Z,11.05
2018-04-24T00:45:37.159Z,11.11
2018-04-24T00:51:27.979Z,11.11
2018-04-24T00:57:18.877Z,12.05
2018-04-24T01:03:09.687Z,3.89
2018-04-24T01:09:00.478Z,11.82
2018-04-24T01:14:51.340Z,11.44
2018-04-24T01:20:42.221Z,10.91
2018-04-24T01:26:32.993Z,12.13
2018-04-24T01:32:23.842Z,11.33
2018-04-24T01:38:14.682Z,10.54
2018-04-24T01:44:05.502Z,10.84
2018-04-24T01:49:56.342Z,12.44
2018-04-24T01:55:47.183Z,11.65
2018-04-24T02:01:37.978Z,11.71
2018-04-24T02:07:28.796Z,11.3
2018-04-24T02:13:19.626Z,12.29
2018-04-24T02:19:10.467Z,11.98
2018-04-24T02:25:01.328Z,12.46
2018-04-24T02:30:52.108Z,12.65
2018-04-24T02:36:42.964Z,12.16
2018-04-24T02:42:33.802Z,12.71
2018-04-24T02:48:24.632Z,13.11
2018-04-24T02:54:15.417Z,11.45
2018-04-24T03:00:06.240Z,13.41
2018-04-24T03:05:57.069Z,11.9
2018-04-24T03:11:47.936Z,11.24
2018-04-24T03:17:38.706Z,11.48
2018-04-24T03:23:29.591Z,10.27
2018-04-24T03:29:20.381Z,11.25
2018-04-24T03:35:11.220Z,11.02
2018-04-24T03:41:02.028Z,11.03
2018-04-24T03:46:52.856Z,10.24
2018-04-24T03:52:43.738Z,10.22
2018-04-24T03:58:34.563Z,11.1
2018-04-24T04:04:25.368Z,10.79
2018-04-24T04:10:16.154Z,10.98
2018-04-24T04:16:07.016Z,10.46
2018-04-24T04:21:57.830Z,10.94
2018-04-24T04:27:48.674Z,10.61
2018-04-24T04:33:39.467Z,11.06
2018-04-24T04:39:30.295Z,11.08
2018-04-24T04:45:21.083Z,12.38
2018-04-24T04:51:11.964Z,13.39
2018-04-24T04:57:02.795Z,14.44
2018-04-24T05:02:53.576Z,14.59
2018-04-24T05:08:44.421Z,14.65
2018-04-24T05:14:35.229Z,15.22
2018-04-24T05:20:26.106Z,15.37
2018-04-24T05:26:16.885Z,14.11
2018-04-24T05:32:07.722Z,15.77
2018-04-24T05:37:58.570Z,15.19
2018-04-24T05:43:49.373Z,15.88
2018-04-24T05:49:40.194Z,15.96
2018-04-24T05:55:31.087Z,22.02
2018-04-24T06:01:21.885Z,16.54
2018-04-24T06:07:12.722Z,16.42
2018-04-24T06:13:03.567Z,17.58
2018-04-24T06:18:54.357Z,17.85
2018-04-24T06:24:45.219Z,18.14
2018-04-24T06:30:36.034Z,18.48
2018-04-24T06:36:26.914Z,17.89
2018-04-24T06:42:17.770Z,17.4
2018-04-24T06:48:08.567Z,28.11
2018-04-24T06:53:59.422Z,18.64
2018-04-24T06:59:50.240Z,17.99
2018-04-24T07:05:41.113Z,21.46
2018-04-24T07:11:31.919Z,19.33
2018-04-24T07:17:22.773Z,18.86
2018-04-24T07:23:13.721Z,17.59
2018-04-24T07:29:04.473Z,17.15
2018-04-24T07:34:55.284Z,16.56
2018-04-24T07:40:46.153Z,17.18
2018-04-24T07:46:37.078Z,17.15
2018-04-24T07:52:27.896Z,17.9
2018-04-24T07:58:18.738Z,17.68
2018-04-24T08:04:09.623Z,18.37
2018-04-24T08:10:00.422Z,17.77
2018-04-24T08:15:51.317Z,16.59
2018-04-24T08:21:42.184Z,16.73
2018-04-24T08:27:33.090Z,16.33
2018-04-24T08:33:23.906Z,15.58
2018-04-24T08:39:14.799Z,13.8
2018-04-24T08:45:05.674Z,16.58
2018-04-24T08:50:56.627Z,12.94
2018-04-24T08:56:47.428Z,16.05
2018-04-24T09:02:38.327Z,21.56
2018-04-24T09:08:29.292Z,17.71
2018-04-24T09:14:20.106Z,15.79
2018-04-24T09:20:11.033Z,16.22
2018-04-24T09:26:01.878Z,15.09
2018-04-24T09:31:52.793Z,13.21
2018-04-24T09:37:43.726Z,11.79
2018-04-24T09:43:34.634Z,10.8
2018-04-24T09:49:25.677Z,9.93
2018-04-24T09:55:16.384Z,9.13
2018-04-24T10:01:07.313Z,10.36
2018-04-24T10:06:58.207Z,9.81
2018-04-24T10:12:49.087Z,9.84
2018-04-24T10:18:40.044Z,11.02
2018-04-24T10:24:30.945Z,9.49
2018-04-24T10:30:21.820Z,9.68
2018-04-24T10:36:12.629Z,9.22
2018-04-24T10:42:03.404Z,9.16
2018-04-24T10:47:54.282Z,8.19
2018-04-24T10:53:45.101Z,9.24
2018-04-24T10:59:35.910Z,8.35
2018-04-24T11:05:26.748Z,9.53
2018-04-24T11:11:17.630Z,8.5
2018-04-24T11:17:08.422Z,7.89
2018-04-24T11:22:59.287Z,7.78
2018-04-24T11:28:50.142Z,7.25
2018-04-24T11:34:40.975Z,7.4
2018-04-24T11:40:31.933Z,6.25
2018-04-24T11:46:22.726Z,5.74
2018-04-24T11:52:13.575Z,6.78
2018-04-24T11:58:04.487Z,6.26
2018-04-24T12:03:55.345Z,6.68
2018-04-24T12:09:46.210Z,6.4
2018-04-24T12:15:37.115Z,5.94
2018-04-24T12:21:28.008Z,5.81
2018-04-24T12:27:18.865Z,4.49
2018-04-24T12:33:09.776Z,4.75
2018-04-24T12:39:00.712Z,3.33
2018-04-24T12:44:51.591Z,4.18
2018-04-24T12:50:42.393Z,4.07
2018-04-24T12:56:33.310Z,3.87
2018-04-24T13:02:24.194Z,3.37
2018-04-24T13:08:15.129Z,3.99
2018-04-24T13:14:05.967Z,4.08
2018-04-24T13:19:56.895Z,3.85
2018-04-24T13:25:47.847Z,3.75
2018-04-24T13:31:38.688Z,4.07
2018-04-24T13:37:29.570Z,4.16
2018-04-24T13:43:20.502Z,4.05
2018-04-24T13:49:11.365Z,3.56
2018-04-24T13:55:02.318Z,3.83
2018-04-24T14:00:53.200Z,4.35
2018-04-24T14:06:44.052Z,4.47
2018-04-24T14:12:34.981Z,3.71
2018-04-24T14:18:25.864Z,4.27
2018-04-24T14:24:16.812Z,4.1
2018-04-24T14:30:07.729Z,4.04
2018-04-24T14:35:58.584Z,4.37
2018-04-24T14:41:49.460Z,3.63
2018-04-24T14:47:40.354Z,3.86
2018-04-24T14:53:31.216Z,3.86
2018-04-24T14:59:22.201Z,4.01
2018-04-24T15:05:13.032Z,4.29
2018-04-24T15:11:03.970Z,4.27
2018-04-24T15:16:54.785Z,3.82
2018-04-24T15:22:45.700Z,4.64
2018-04-24T15:28:36.585Z,3.6
2018-04-24T15:34:27.505Z,3.9
2018-04-24T15:40:18.374Z,3.54
2018-04-24T15:46:09.215Z,3.41
2018-04-24T15:52:00.076Z,3.59
2018-04-24T15:57:51.026Z,4.1
2018-04-24T16:03:41.870Z,4.06
2018-04-24T16:09:32.778Z,3.72
2018-04-24T16:15:23.589Z,4.44
2018-04-24T16:21:14.479Z,4.3
2018-04-24T16:27:05.293Z,5.02
2018-04-24T16:32:56.189Z,4.55
2018-04-24T16:38:47.030Z,5.13
2018-04-24T16:44:37.871Z,6.07
2018-04-24T16:50:28.741Z,4.99
2018-04-24T16:56:19.552Z,5.18
2018-04-24T17:02:10.377Z,6.34
2018-04-24T17:08:01.254Z,5.48
2018-04-24T17:13:52.110Z,4.98
2018-04-24T17:19:42.976Z,6.05
2018-04-24T17:25:33.790Z,5.64
2018-04-24T17:31:24.531Z,5.45
2018-04-24T17:37:15.512Z,5.47
2018-04-24T17:43:06.213Z,5.28
2018-04-24T17:48:57.032Z,5.5
2018-04-24T17:54:47.989Z,5.86
2018-04-24T18:00:38.893Z,6.62
2018-04-24T18:06:29.819Z,6.24
2018-04-24T18:12:20.731Z,5.87
2018-04-24T18:18:11.640Z,7
2018-04-24T18:24:02.531Z,6.46
2018-04-24T18:29:53.415Z,6.28
2018-04-24T18:35:44.391Z,6.84
2018-04-24T18:41:35.227Z,6.24
2018-04-24T18:47:26.155Z,6.25
2018-04-24T18:53:17.100Z,6.41
2018-04-24T18:59:07.904Z,6.81
2018-04-24T19:04:58.801Z,7.85
2018-04-24T19:10:49.697Z,7.45
2018-04-24T19:16:40.557Z,7.77
2018-04-24T19:22:31.448Z,7.42
2018-04-24T19:28:22.387Z,7.64
2018-04-24T19:34:13.216Z,7.36
2018-04-24T19:40:04.118Z,8.46
2018-04-24T19:45:55.018Z,7.36
2018-04-24T19:51:45.896Z,7.89
2018-04-24T19:57:36.756Z,7.37
2018-04-24T20:03:27.596Z,7.68
2018-04-24T20:09:18.503Z,7.62
2018-04-24T20:15:09.328Z,8.41
2018-04-24T20:21:00.274Z,8.62
2018-04-24T20:26:51.122Z,8.51
2018-04-24T20:32:41.944Z,8.78
2018-04-24T20:38:32.875Z,7.9
2018-04-24T20:44:23.701Z,8.51
2018-04-24T20:50:14.537Z,8.34
2018-04-24T20:56:05.462Z,8.43
2018-04-24T21:01:56.287Z,7.52
2018-04-24T21:07:47.166Z,8.15
2018-04-24T21:13:38.049Z,8.1
2018-04-24T21:19:28.951Z,8.39
2018-04-24T21:25:19.795Z,10.32
2018-04-24T21:31:10.631Z,8.02
2018-04-24T21:37:01.490Z,8.45
2018-04-24T21:42:52.349Z,7.2
2018-04-24T21:48:43.241Z,9.18
2018-04-24T21:54:34.115Z,7.66
2018-04-24T22:00:24.908Z,8.28
2018-04-24T22:06:15.753Z,8.88
2018-04-24T22:12:06.616Z,8.33
2018-04-24T22:17:57.527Z,8.55
2018-04-24T22:23:48.383Z,8.59
2018-04-24T22:29:40.093Z,8.71
2018-04-24T22:35:30.124Z,8.84
2018-04-24T22:41:20.955Z,9.11
2018-04-24T22:47:11.715Z,8.46
2018-04-24T22:53:03.059Z,8.59
2018-04-24T22:59:09.933Z,8.21
2018-04-24T23:04:44.293Z,9.21
2018-04-24T23:10:35.138Z,7.57
2018-04-24T23:16:25.959Z,7.98
2018-04-24T23:22:16.809Z,7.94
2018-04-24T23:28:07.652Z,8.3
2018-04-24T23:33:58.497Z,8.34
2018-04-24T23:39:49.365Z,7.87
2018-04-24T23:45:40.218Z,8.35
2018-04-24T23:51:31.009Z,8.64
2018-04-24T23:57:21.886Z,8.36
